createdAt,value
2022-11-20T00:01:59.204Z,2.49
2022-11-20T00:04:33.158Z,2.46
2022-11-20T00:07:06.789Z,2.43
2022-11-20T00:09:40.573Z,2.44
2022-11-20T00:12:15.619Z,2.49
2022-11-20T00:14:49.518Z,2.51
2022-11-20T00:17:23.037Z,2.50
2022-11-20T00:19:57.019Z,2.53
2022-11-20T00:22:30.527Z,2.54
2022-11-20T00:25:04.701Z,2.55
2022-11-20T00:27:39.949Z,2.47
2022-11-20T00:30:15.161Z,2.42
2022-11-20T00:32:48.936Z,2.41
2022-11-20T00:35:22.620Z,2.35
2022-11-20T00:37:56.214Z,2.26
2022-11-20T00:40:29.950Z,2.29
2022-11-20T00:43:05.158Z,2.23
2022-11-20T00:45:39.112Z,2.28
2022-11-20T00:48:12.713Z,2.33
2022-11-20T00:50:46.557Z,2.32
2022-11-20T00:53:20.307Z,2.31
2022-11-20T00:55:57.757Z,2.31
2022-11-20T00:58:34.396Z,2.33
2022-11-20T01:01:10.820Z,2.29
2022-11-20T01:03:46.121Z,2.30
2022-11-20T01:06:22.096Z,2.33
2022-11-20T01:08:57.535Z,2.33
2022-11-20T01:11:33.703Z,2.42
2022-11-20T01:14:11.656Z,2.43
2022-11-20T01:16:48.324Z,2.35
2022-11-20T01:19:23.586Z,2.33
2022-11-20T01:21:57.627Z,2.37
2022-11-20T01:24:31.095Z,2.36
2022-11-20T01:27:04.769Z,2.38
2022-11-20T01:29:39.613Z,2.33
2022-11-20T01:32:13.303Z,2.34
2022-11-20T01:34:47.038Z,2.30
2022-11-20T01:37:20.729Z,2.30
2022-11-20T01:39:54.314Z,2.27
2022-11-20T01:42:45.971Z,2.25
2022-11-20T01:45:54.817Z,2.24
2022-11-20T01:48:34.121Z,2.22
2022-11-20T01:51:14.868Z,2.23
2022-11-20T01:53:49.211Z,2.26
2022-11-20T01:56:24.556Z,2.15
2022-11-20T01:59:02.832Z,2.13
2022-11-20T02:01:40.106Z,2.20
2022-11-20T02:04:15.370Z,2.24
2022-11-20T02:06:54.380Z,2.25
2022-11-20T02:09:28.441Z,2.24
2022-11-20T02:12:02.724Z,2.10
2022-11-20T02:14:35.492Z,2.08
2022-11-20T02:17:10.567Z,2.07
2022-11-20T02:19:44.417Z,2.11
2022-11-20T02:22:24.222Z,2.19
2022-11-20T02:25:03.140Z,2.09
2022-11-20T02:27:36.736Z,2.04
2022-11-20T02:30:12.899Z,2.10
2022-11-20T02:32:46.779Z,2.13
2022-11-20T02:35:41.812Z,2.13
2022-11-20T02:38:16.338Z,2.14
2022-11-20T02:40:55.550Z,2.09
2022-11-20T02:43:29.500Z,2.14
2022-11-20T02:46:03.297Z,2.17
2022-11-20T02:48:37.089Z,2.14
2022-11-20T02:51:10.929Z,2.13
2022-11-20T02:53:44.485Z,2.13
2022-11-20T02:56:19.937Z,2.17
2022-11-20T02:58:53.625Z,2.15
2022-11-20T03:01:27.453Z,2.15
2022-11-20T03:04:01.426Z,2.11
2022-11-20T03:06:35.479Z,2.09
2022-11-20T03:09:09.172Z,2.08
2022-11-20T03:11:44.263Z,2.10
2022-11-20T03:14:18.170Z,2.06
2022-11-20T03:16:51.979Z,2.06
2022-11-20T03:19:25.748Z,2.03
2022-11-20T03:21:59.644Z,2.04
2022-11-20T03:24:33.235Z,2.06
2022-11-20T03:27:08.688Z,2.03
2022-11-20T03:29:42.307Z,2.06
2022-11-20T03:32:16.113Z,2.11
2022-11-20T03:34:49.798Z,2.13
2022-11-20T03:37:23.524Z,2.19
2022-11-20T03:39:57.104Z,2.07
2022-11-20T03:42:47.647Z,2.15
2022-11-20T03:45:21.303Z,2.17
2022-11-20T03:47:55.127Z,2.13
2022-11-20T03:50:28.710Z,2.15
2022-11-20T03:53:02.791Z,2.19
2022-11-20T03:55:36.279Z,2.18
2022-11-20T03:58:11.589Z,2.20
2022-11-20T04:00:45.325Z,2.18
2022-11-20T04:03:19.195Z,2.15
2022-11-20T04:05:52.823Z,2.19
2022-11-20T04:08:26.668Z,2.19
2022-11-20T04:11:10.596Z,2.10
2022-11-20T04:13:49.869Z,2.15
2022-11-20T04:16:24.631Z,2.12
2022-11-20T04:18:59.816Z,2.17
2022-11-20T04:21:33.504Z,2.13
2022-11-20T04:24:08.212Z,2.09
2022-11-20T04:26:42.155Z,2.06
2022-11-20T04:29:17.431Z,2.05
2022-11-20T04:31:51.062Z,2.05
2022-11-20T04:34:24.758Z,1.99
2022-11-20T04:36:58.287Z,1.98
2022-11-20T04:39:32.147Z,2.00
2022-11-20T04:42:23.378Z,2.06
2022-11-20T04:44:59.092Z,2.07
2022-11-20T04:47:32.828Z,2.07
2022-11-20T04:50:07.743Z,2.06
2022-11-20T04:52:41.503Z,2.05
2022-11-20T04:55:15.506Z,2.05
2022-11-20T04:57:52.608Z,2.00
2022-11-20T05:00:27.814Z,2.01
2022-11-20T05:03:01.553Z,2.04
2022-11-20T05:05:35.971Z,1.99
2022-11-20T05:08:09.592Z,1.97
2022-11-20T05:10:43.447Z,1.94
2022-11-20T05:13:17.251Z,1.97
2022-11-20T05:15:52.595Z,1.95
2022-11-20T05:18:26.173Z,1.97
2022-11-20T05:21:00.545Z,1.98
2022-11-20T05:23:34.901Z,2.00
2022-11-20T05:26:10.197Z,2.03
2022-11-20T05:28:43.996Z,2.00
2022-11-20T05:31:26.652Z,1.99
2022-11-20T05:34:01.063Z,2.01
2022-11-20T05:36:35.642Z,2.02
2022-11-20T05:39:09.265Z,2.00
2022-11-20T05:41:42.989Z,2.02
2022-11-20T05:44:16.946Z,1.99
2022-11-20T05:46:52.119Z,2.01
2022-11-20T05:49:25.827Z,2.01
2022-11-20T05:51:59.669Z,1.96
2022-11-20T05:54:33.611Z,1.97
2022-11-20T05:57:07.470Z,2.01
2022-11-20T05:59:41.153Z,2.08
2022-11-20T06:02:16.377Z,2.01
2022-11-20T06:04:50.079Z,2.04
2022-11-20T06:07:23.960Z,2.07
2022-11-20T06:09:57.520Z,2.05
2022-11-20T06:12:33.646Z,2.06
2022-11-20T06:15:08.233Z,2.06
2022-11-20T06:17:43.576Z,1.99
2022-11-20T06:20:17.502Z,2.01
2022-11-20T06:22:51.276Z,1.96
2022-11-20T06:25:24.808Z,1.95
2022-11-20T06:27:58.625Z,1.98
2022-11-20T06:30:32.155Z,1.99
2022-11-20T06:33:07.532Z,2.04
2022-11-20T06:35:41.185Z,2.03
2022-11-20T06:38:14.979Z,2.01
2022-11-20T06:40:48.568Z,1.97
2022-11-20T06:43:22.368Z,1.98
2022-11-20T06:45:56.948Z,1.88
2022-11-20T06:48:32.204Z,1.90
2022-11-20T06:51:07.225Z,1.88
2022-11-20T06:53:41.273Z,1.82
2022-11-20T06:56:15.127Z,1.79
2022-11-20T06:58:49.000Z,1.78
2022-11-20T07:01:22.597Z,1.75
2022-11-20T07:03:57.827Z,1.75
2022-11-20T07:06:31.538Z,1.75
2022-11-20T07:09:09.898Z,1.72
2022-11-20T07:11:46.667Z,1.75
2022-11-20T07:14:20.446Z,1.77
2022-11-20T07:16:54.070Z,1.80
2022-11-20T07:19:29.284Z,1.76
2022-11-20T07:22:02.886Z,1.83
2022-11-20T07:24:36.808Z,1.83
2022-11-20T07:27:10.584Z,1.82
2022-11-20T07:29:44.377Z,1.76
2022-11-20T07:32:18.139Z,1.75
2022-11-20T07:34:53.532Z,1.77
2022-11-20T07:37:27.192Z,1.83
2022-11-20T07:40:00.903Z,1.89
2022-11-20T07:42:34.567Z,1.88
2022-11-20T07:45:08.920Z,1.89
2022-11-20T07:47:42.579Z,1.91
2022-11-20T07:50:18.779Z,1.92
2022-11-20T07:52:53.167Z,1.95
2022-11-20T07:55:26.918Z,1.99
2022-11-20T07:58:00.473Z,1.88
2022-11-20T08:00:34.441Z,2.01
2022-11-20T08:03:09.074Z,2.06
2022-11-20T08:05:44.694Z,2.10
2022-11-20T08:08:18.260Z,2.04
2022-11-20T08:10:52.015Z,2.12
2022-11-20T08:13:43.067Z,2.25
2022-11-20T08:16:17.089Z,2.33
2022-11-20T08:18:50.710Z,2.42
2022-11-20T08:21:25.897Z,2.36
2022-11-20T08:24:00.072Z,2.32
2022-11-20T08:26:34.269Z,2.32
2022-11-20T08:29:08.270Z,2.42
2022-11-20T08:31:41.979Z,2.45
2022-11-20T08:34:18.993Z,2.57
2022-11-20T08:36:54.455Z,2.65
2022-11-20T08:39:28.049Z,2.59
2022-11-20T08:42:01.842Z,2.55
2022-11-20T08:44:35.356Z,2.54
2022-11-20T08:47:09.258Z,2.63
2022-11-20T08:49:42.762Z,2.75
2022-11-20T08:52:17.977Z,2.79
2022-11-20T08:54:51.711Z,2.84
2022-11-20T08:57:25.554Z,2.89
2022-11-20T09:02:53.293Z,2.86
2022-11-20T09:05:26.975Z,2.96
2022-11-20T09:08:02.157Z,2.88
2022-11-20T09:10:35.914Z,2.78
2022-11-20T09:13:09.658Z,2.73
2022-11-20T09:15:43.238Z,2.74
2022-11-20T09:18:17.149Z,2.64
2022-11-20T09:20:51.014Z,2.46
2022-11-20T09:23:26.374Z,2.43
2022-11-20T09:26:00.655Z,2.42
2022-11-20T09:28:35.035Z,2.45
2022-11-20T09:31:09.784Z,2.48
2022-11-20T09:33:43.900Z,2.48
2022-11-20T09:36:19.457Z,2.54
2022-11-20T09:38:54.816Z,2.59
2022-11-20T09:41:58.481Z,2.67
2022-11-20T09:44:50.888Z,2.83
2022-11-20T09:47:35.142Z,2.82
2022-11-20T09:50:25.783Z,2.82
2022-11-20T09:53:12.873Z,3.15
2022-11-20T09:55:49.598Z,3.38
2022-11-20T09:58:33.614Z,3.11
2022-11-20T10:01:13.313Z,3.26
2022-11-20T10:03:56.105Z,3.18
2022-11-20T10:06:33.207Z,3.19
2022-11-20T10:09:18.875Z,3.21
2022-11-20T10:12:07.818Z,3.37
2022-11-20T10:14:56.807Z,3.47
2022-11-20T10:17:47.175Z,3.49
2022-11-20T10:20:30.545Z,3.41
2022-11-20T10:23:26.537Z,3.29
2022-11-20T10:26:04.240Z,3.16
2022-11-20T10:28:59.198Z,3.03
2022-11-20T10:31:37.091Z,3.09
2022-11-20T10:34:23.319Z,2.96
2022-11-20T10:37:00.410Z,3.02
2022-11-20T10:39:41.671Z,3.05
2022-11-20T10:42:19.604Z,3.13
2022-11-20T10:45:06.878Z,3.12
2022-11-20T10:47:40.731Z,3.21
2022-11-20T10:50:22.628Z,3.42
2022-11-20T10:53:07.297Z,3.59
2022-11-20T10:55:47.143Z,3.68
2022-11-20T10:58:39.691Z,3.61
2022-11-20T11:01:19.324Z,3.44
2022-11-20T11:03:54.767Z,3.43
2022-11-20T11:06:35.997Z,3.32
2022-11-20T11:09:16.457Z,3.36
2022-11-20T11:11:50.486Z,3.33
2022-11-20T11:14:25.570Z,3.31
2022-11-20T11:17:01.474Z,3.33
2022-11-20T11:19:35.140Z,3.50
2022-11-20T11:22:18.772Z,3.46
2022-11-20T11:24:54.775Z,3.44
2022-11-20T11:27:28.952Z,3.45
2022-11-20T11:30:15.967Z,3.36
2022-11-20T11:32:51.505Z,3.25
2022-11-20T11:35:27.278Z,3.25
2022-11-20T11:38:06.368Z,3.18
2022-11-20T11:40:41.905Z,3.03
2022-11-20T11:43:39.956Z,3.17
2022-11-20T11:46:27.980Z,3.22
2022-11-20T11:49:14.515Z,3.17
2022-11-20T11:52:01.416Z,3.09
2022-11-20T11:54:42.844Z,3.17
2022-11-20T11:57:25.263Z,3.17
2022-11-20T12:00:04.267Z,3.26
2022-11-20T12:02:41.441Z,3.31
2022-11-20T12:05:21.732Z,3.35
2022-11-20T12:08:00.093Z,3.22
2022-11-20T12:10:43.322Z,3.26
2022-11-20T12:13:38.628Z,3.31
2022-11-20T12:16:15.887Z,3.45
2022-11-20T12:18:52.103Z,3.53
2022-11-20T12:21:36.351Z,3.35
2022-11-20T12:24:34.438Z,3.42
2022-11-20T12:27:29.158Z,3.43
2022-11-20T12:30:05.400Z,3.51
2022-11-20T12:33:14.955Z,3.58
2022-11-20T12:36:05.772Z,3.62
2022-11-20T12:38:59.474Z,3.67
2022-11-20T12:42:05.693Z,3.67
2022-11-20T12:45:13.703Z,3.64
2022-11-20T12:48:16.832Z,3.74
2022-11-20T12:51:15.547Z,3.68
2022-11-20T12:54:02.231Z,3.61
2022-11-20T12:56:45.349Z,3.56
2022-11-20T12:59:31.993Z,3.50
2022-11-20T13:02:21.096Z,3.44
2022-11-20T13:05:01.038Z,3.50
2022-11-20T13:07:37.293Z,3.62
2022-11-20T13:10:21.304Z,3.68
2022-11-20T13:13:01.101Z,3.70
2022-11-20T13:15:46.544Z,3.75
2022-11-20T13:18:21.055Z,3.67
2022-11-20T13:20:54.789Z,3.62
2022-11-20T13:23:29.790Z,3.54
2022-11-20T13:26:17.731Z,3.67
2022-11-20T13:29:03.723Z,3.74
2022-11-20T13:31:40.923Z,3.79
2022-11-20T13:34:24.974Z,3.96
2022-11-20T13:37:01.817Z,3.95
2022-11-20T13:39:37.474Z,4.01
2022-11-20T13:42:27.173Z,3.97
2022-11-20T13:45:04.130Z,3.90
2022-11-20T13:47:38.258Z,3.89
2022-11-20T13:50:16.216Z,3.85
2022-11-20T13:53:10.045Z,3.87
2022-11-20T13:55:53.145Z,3.79
2022-11-20T13:58:42.497Z,3.86
2022-11-20T14:01:19.872Z,3.77
2022-11-20T14:04:10.394Z,3.77
2022-11-20T14:06:46.140Z,3.68
2022-11-20T14:09:28.894Z,3.74
2022-11-20T14:12:04.465Z,3.67
2022-11-20T14:14:50.326Z,3.63
2022-11-20T14:17:26.339Z,3.60
2022-11-20T14:20:03.352Z,3.59
2022-11-20T14:22:37.471Z,3.52
2022-11-20T14:25:24.194Z,3.45
2022-11-20T14:28:00.522Z,3.46
2022-11-20T14:30:45.095Z,3.49
2022-11-20T14:33:20.857Z,3.46
2022-11-20T14:35:56.564Z,3.47
2022-11-20T14:38:33.421Z,3.47
2022-11-20T14:41:10.619Z,3.40
2022-11-20T14:43:48.087Z,3.32
2022-11-20T14:46:23.798Z,3.42
2022-11-20T14:48:59.887Z,3.37
2022-11-20T14:51:35.917Z,3.21
2022-11-20T14:54:11.579Z,3.11
2022-11-20T14:56:56.337Z,2.99
2022-11-20T14:59:31.790Z,2.94
2022-11-20T15:02:10.835Z,2.88
2022-11-20T15:04:49.275Z,2.90
2022-11-20T15:07:27.310Z,2.87
2022-11-20T15:10:05.475Z,2.89
2022-11-20T15:12:42.398Z,2.90
2022-11-20T15:15:21.327Z,2.92
2022-11-20T15:17:56.439Z,2.95
2022-11-20T15:20:33.534Z,2.97
2022-11-20T15:23:12.895Z,2.99
2022-11-20T15:25:47.814Z,2.96
2022-11-20T15:28:23.718Z,3.01
2022-11-20T15:30:57.918Z,2.98
2022-11-20T15:33:33.833Z,2.96
2022-11-20T15:36:07.961Z,3.00
2022-11-20T15:38:41.619Z,2.98
2022-11-20T15:41:15.516Z,3.03
2022-11-20T15:43:49.163Z,3.03
2022-11-20T15:46:28.167Z,3.09
2022-11-20T15:49:02.971Z,3.09
2022-11-20T15:51:38.660Z,3.16
2022-11-20T15:54:13.681Z,3.13
2022-11-20T15:56:47.544Z,3.09
2022-11-20T15:59:21.192Z,3.05
2022-11-20T16:01:54.964Z,3.06
2022-11-20T16:04:29.777Z,3.03
2022-11-20T16:07:03.612Z,3.04
2022-11-20T16:09:37.128Z,3.04
2022-11-20T16:12:31.657Z,3.03
2022-11-20T16:15:23.613Z,3.02
2022-11-20T16:17:57.278Z,3.02
2022-11-20T16:20:33.122Z,3.01
2022-11-20T16:23:07.539Z,3.03
2022-11-20T16:25:41.038Z,3.01
2022-11-20T16:28:18.939Z,3.01
2022-11-20T16:30:52.972Z,3.04
2022-11-20T16:33:26.674Z,3.06
2022-11-20T16:36:08.943Z,3.01
2022-11-20T16:38:43.121Z,3.03
2022-11-20T16:41:16.766Z,3.04
2022-11-20T16:43:52.445Z,3.10
2022-11-20T16:46:28.563Z,3.08
2022-11-20T16:49:04.282Z,3.00
2022-11-20T16:51:39.214Z,2.96
2022-11-20T16:54:20.872Z,2.93
2022-11-20T16:56:55.133Z,2.93
2022-11-20T16:59:28.963Z,2.93
2022-11-20T17:02:03.012Z,2.92
2022-11-20T17:04:36.950Z,2.92
2022-11-20T17:07:12.381Z,2.93
2022-11-20T17:09:46.374Z,2.93
2022-11-20T17:12:20.020Z,2.90
2022-11-20T17:14:54.013Z,2.88
2022-11-20T17:17:27.594Z,2.83
2022-11-20T17:20:01.238Z,2.85
2022-11-20T17:22:36.555Z,2.86
2022-11-20T17:25:10.542Z,2.85
2022-11-20T17:27:44.175Z,2.80
2022-11-20T17:30:18.000Z,2.74
2022-11-20T17:32:51.510Z,2.71
2022-11-20T17:35:25.214Z,2.73
2022-11-20T17:38:00.047Z,2.72
2022-11-20T17:40:34.040Z,2.70
2022-11-20T17:43:07.527Z,2.71
2022-11-20T17:45:41.178Z,2.74
2022-11-20T17:48:14.793Z,2.81
2022-11-20T17:50:48.597Z,2.78
2022-11-20T17:53:23.482Z,2.76
2022-11-20T17:56:26.562Z,2.76
2022-11-20T17:59:00.816Z,2.69
2022-11-20T18:01:35.194Z,2.70
2022-11-20T18:04:08.717Z,2.63
2022-11-20T18:06:43.669Z,2.61
2022-11-20T18:09:18.743Z,2.57
2022-11-20T18:11:52.404Z,2.55
2022-11-20T18:14:32.657Z,2.55
2022-11-20T18:17:09.357Z,2.54
2022-11-20T18:20:07.278Z,2.55
2022-11-20T18:22:39.146Z,2.51
2022-11-20T18:25:14.020Z,2.51
2022-11-20T18:27:47.757Z,2.53
2022-11-20T18:30:21.227Z,2.52
2022-11-20T18:32:55.680Z,2.51
2022-11-20T18:35:29.270Z,2.50
2022-11-20T18:38:02.998Z,2.51
2022-11-20T18:40:38.241Z,2.52
2022-11-20T18:43:30.281Z,2.50
2022-11-20T18:46:04.551Z,2.56
2022-11-20T18:48:38.749Z,2.59
2022-11-20T18:51:16.118Z,2.63
2022-11-20T18:53:49.886Z,2.67
2022-11-20T18:56:24.701Z,2.69
2022-11-20T18:59:01.555Z,2.70
2022-11-20T19:01:36.260Z,2.73
2022-11-20T19:04:11.884Z,2.78
2022-11-20T19:06:49.238Z,2.79
2022-11-20T19:09:24.724Z,2.80
2022-11-20T19:12:00.194Z,2.77
2022-11-20T19:14:34.254Z,2.79
2022-11-20T19:17:10.264Z,2.82
2022-11-20T19:19:44.289Z,2.82
2022-11-20T19:22:18.106Z,2.72
2022-11-20T19:24:51.983Z,2.63
2022-11-20T19:27:26.918Z,2.57
2022-11-20T19:30:03.385Z,2.52
2022-11-20T19:32:37.458Z,2.45
2022-11-20T19:35:11.276Z,2.37
2022-11-20T19:37:45.037Z,2.35
2022-11-20T19:40:18.928Z,2.31
2022-11-20T19:42:53.832Z,2.30
2022-11-20T19:45:27.673Z,2.32
2022-11-20T19:48:08.828Z,2.35
2022-11-20T19:50:42.782Z,2.38
2022-11-20T19:53:16.679Z,2.25
2022-11-20T19:55:57.858Z,2.23
2022-11-20T19:58:32.942Z,2.26
2022-11-20T20:01:08.456Z,2.22
2022-11-20T20:03:42.596Z,2.21
2022-11-20T20:06:21.516Z,2.24
2022-11-20T20:08:56.528Z,2.23
2022-11-20T20:11:32.784Z,2.18
2022-11-20T20:14:09.871Z,2.17
2022-11-20T20:16:44.154Z,2.19
2022-11-20T20:19:17.945Z,2.17
2022-11-20T20:21:51.639Z,2.15
2022-11-20T20:24:25.226Z,2.18
2022-11-20T20:26:58.975Z,2.17
2022-11-20T20:29:33.818Z,2.08
2022-11-20T20:32:07.606Z,2.12
2022-11-20T20:34:41.092Z,2.06
2022-11-20T20:37:14.805Z,1.94
2022-11-20T20:39:48.693Z,1.99
2022-11-20T20:42:22.638Z,1.97
2022-11-20T20:45:11.227Z,1.93
2022-11-20T20:47:44.944Z,1.91
2022-11-20T20:50:19.023Z,1.84
2022-11-20T20:52:52.817Z,1.78
2022-11-20T20:55:26.459Z,1.72
2022-11-20T20:58:00.238Z,1.65
2022-11-20T21:00:35.265Z,1.56
2022-11-20T21:03:09.053Z,1.44
2022-11-20T21:05:42.768Z,1.34
2022-11-20T21:08:22.623Z,1.30
2022-11-20T21:11:01.872Z,1.23
2022-11-20T21:13:37.006Z,1.18
2022-11-20T21:16:13.016Z,1.14
2022-11-20T21:18:47.220Z,1.09
2022-11-20T21:21:38.666Z,1.06
2022-11-20T21:24:12.397Z,1.06
2022-11-20T21:26:46.084Z,1.08
2022-11-20T21:29:19.889Z,1.11
2022-11-20T21:31:55.341Z,1.10
2022-11-20T21:34:29.088Z,1.10
2022-11-20T21:37:02.617Z,1.12
2022-11-20T21:39:50.450Z,1.12
2022-11-20T21:42:24.226Z,1.08
2022-11-20T21:44:58.045Z,1.03
2022-11-20T21:47:32.900Z,0.97
2022-11-20T21:50:07.132Z,0.95
2022-11-20T21:52:40.712Z,0.94
2022-11-20T21:55:14.511Z,0.86
2022-11-20T21:57:48.202Z,0.82
2022-11-20T22:00:22.261Z,0.78
2022-11-20T22:02:57.199Z,0.74
2022-11-20T22:05:31.040Z,0.71
2022-11-20T22:08:04.790Z,0.68
2022-11-20T22:10:38.702Z,0.62
2022-11-20T22:13:29.659Z,0.59
2022-11-20T22:16:03.456Z,0.56
2022-11-20T22:18:43.609Z,0.57
2022-11-20T22:21:18.789Z,0.57
2022-11-20T22:23:52.992Z,0.55
2022-11-20T22:26:28.892Z,0.55
2022-11-20T22:29:02.597Z,0.46
2022-11-20T22:31:36.539Z,0.40
2022-11-20T22:34:13.494Z,0.37
2022-11-20T22:36:47.280Z,0.34
2022-11-20T22:39:22.725Z,0.29
2022-11-20T22:41:56.357Z,0.28
2022-11-20T22:44:29.869Z,0.30
2022-11-20T22:47:08.703Z,0.25
2022-11-20T22:49:46.030Z,0.18
2022-11-20T22:52:19.903Z,0.14
2022-11-20T22:54:53.562Z,0.16
2022-11-20T22:57:27.249Z,0.20
2022-11-20T23:00:00.765Z,0.17
2022-11-20T23:02:34.756Z,0.12
2022-11-20T23:05:09.871Z,0.07
2022-11-20T23:07:44.233Z,0.06
2022-11-20T23:10:17.880Z,0.05
2022-11-20T23:12:51.653Z,-0.01
2022-11-20T23:15:25.246Z,-0.04
2022-11-20T23:17:58.990Z,-0.10
2022-11-20T23:20:36.041Z,-0.16
2022-11-20T23:23:09.649Z,-0.19
2022-11-20T23:25:43.291Z,-0.21
2022-11-20T23:28:17.145Z,-0.24
2022-11-20T23:30:50.864Z,-0.24
2022-11-20T23:33:25.008Z,-0.27
2022-11-20T23:35:59.814Z,-0.31
2022-11-20T23:38:33.515Z,-0.31
2022-11-20T23:41:07.216Z,-0.31
2022-11-20T23:43:41.326Z,-0.29
2022-11-20T23:46:16.765Z,-0.25
2022-11-20T23:48:50.736Z,-0.23
2022-11-20T23:51:25.592Z,-0.25
2022-11-20T23:54:04.332Z,-0.26
2022-11-20T23:56:38.365Z,-0.27
2022-11-20T23:59:12.081Z,-0.26
